sensor_id;sensor_type;location;lat;lon;timestamp;P1;durP1;ratioP1;P2;durP2;ratioP2
79261;SDS011;68699;48.220;16.358;2023-04-15T00:00:51;0.60;;;0.60;;
79261;SDS011;68699;48.220;16.358;2023-04-15T00:03:18;0.40;;;0.40;;
79261;SDS011;68699;48.220;16.358;2023-04-15T00:05:45;0.53;;;0.50;;
79261;SDS011;68699;48.220;16.358;2023-04-15T00:08:11;1.20;;;0.90;;
79261;SDS011;68699;48.220;16.358;2023-04-15T00:10:37;0.60;;;0.60;;
79261;SDS011;68699;48.220;16.358;2023-04-15T00:13:03;0.70;;;0.70;;
79261;SDS011;68699;48.220;16.358;2023-04-15T00:15:30;0.80;;;0.80;;
79261;SDS011;68699;48.220;16.358;2023-04-15T00:17:56;1.00;;;0.80;;
79261;SDS011;68699;48.220;16.358;2023-04-15T00:20:23;1.20;;;0.63;;
79261;SDS011;68699;48.220;16.358;2023-04-15T00:22:49;0.53;;;0.53;;
79261;SDS011;68699;48.220;16.358;2023-04-15T00:25:15;1.27;;;0.73;;
79261;SDS011;68699;48.220;16.358;2023-04-15T00:27:41;0.80;;;0.70;;
79261;SDS011;68699;48.220;16.358;2023-04-15T00:30:07;0.93;;;0.70;;
79261;SDS011;68699;48.220;16.358;2023-04-15T00:32:34;0.40;;;0.40;;
79261;SDS011;68699;48.220;16.358;2023-04-15T00:35:00;0.60;;;0.60;;
79261;SDS011;68699;48.220;16.358;2023-04-15T00:37:27;0.40;;;0.40;;
79261;SDS011;68699;48.220;16.358;2023-04-15T00:39:53;0.73;;;0.70;;
79261;SDS011;68699;48.220;16.358;2023-04-15T00:42:19;0.67;;;0.67;;
79261;SDS011;68699;48.220;16.358;2023-04-15T00:44:46;0.70;;;0.70;;
79261;SDS011;68699;48.220;16.358;2023-04-15T00:47:12;0.60;;;0.60;;
79261;SDS011;68699;48.220;16.358;2023-04-15T00:49:39;0.80;;;0.80;;
79261;SDS011;68699;48.220;16.358;2023-04-15T00:52:06;0.70;;;0.70;;
79261;SDS011;68699;48.220;16.358;2023-04-15T00:54:33;0.77;;;0.70;;
79261;SDS011;68699;48.220;16.358;2023-04-15T00:56:59;0.80;;;0.60;;
79261;SDS011;68699;48.220;16.358;2023-04-15T00:59:26;0.60;;;0.60;;
79261;SDS011;68699;48.220;16.358;2023-04-15T01:01:52;0.60;;;0.60;;
79261;SDS011;68699;48.220;16.358;2023-04-15T01:04:18;0.60;;;0.60;;
79261;SDS011;68699;48.220;16.358;2023-04-15T01:06:44;0.80;;;0.70;;
79261;SDS011;68699;48.220;16.358;2023-04-15T01:09:11;1.63;;;0.90;;
79261;SDS011;68699;48.220;16.358;2023-04-15T01:11:37;0.80;;;0.60;;
79261;SDS011;68699;48.220;16.358;2023-04-15T01:14:03;0.80;;;0.70;;
79261;SDS011;68699;48.220;16.358;2023-04-15T01:16:31;0.77;;;0.73;;
79261;SDS011;68699;48.220;16.358;2023-04-15T01:18:57;0.60;;;0.60;;
79261;SDS011;68699;48.220;16.358;2023-04-15T01:21:23;0.77;;;0.60;;
79261;SDS011;68699;48.220;16.358;2023-04-15T01:23:50;0.60;;;0.60;;
79261;SDS011;68699;48.220;16.358;2023-04-15T01:26:18;1.77;;;0.70;;
79261;SDS011;68699;48.220;16.358;2023-04-15T01:28:44;0.70;;;0.70;;
79261;SDS011;68699;48.220;16.358;2023-04-15T01:31:11;0.70;;;0.70;;
79261;SDS011;68699;48.220;16.358;2023-04-15T01:33:39;0.70;;;0.60;;
79261;SDS011;68699;48.220;16.358;2023-04-15T01:36:07;0.70;;;0.70;;
79261;SDS011;68699;48.220;16.358;2023-04-15T01:38:34;1.53;;;0.70;;
79261;SDS011;68699;48.220;16.358;2023-04-15T01:41:01;1.23;;;0.90;;
79261;SDS011;68699;48.220;16.358;2023-04-15T01:43:28;0.80;;;0.80;;
79261;SDS011;68699;48.220;16.358;2023-04-15T01:45:55;0.83;;;0.63;;
79261;SDS011;68699;48.220;16.358;2023-04-15T01:48:21;0.50;;;0.50;;
79261;SDS011;68699;48.220;16.358;2023-04-15T01:50:48;1.47;;;0.70;;
79261;SDS011;68699;48.220;16.358;2023-04-15T01:53:16;0.97;;;0.80;;
79261;SDS011;68699;48.220;16.358;2023-04-15T01:55:42;0.77;;;0.77;;
79261;SDS011;68699;48.220;16.358;2023-04-15T01:58:08;0.80;;;0.80;;
79261;SDS011;68699;48.220;16.358;2023-04-15T02:00:35;1.17;;;0.60;;
79261;SDS011;68699;48.220;16.358;2023-04-15T02:03:01;1.23;;;0.60;;
79261;SDS011;68699;48.220;16.358;2023-04-15T02:05:27;0.90;;;0.63;;
79261;SDS011;68699;48.220;16.358;2023-04-15T02:07:53;0.50;;;0.50;;
79261;SDS011;68699;48.220;16.358;2023-04-15T02:10:19;1.23;;;0.57;;
79261;SDS011;68699;48.220;16.358;2023-04-15T02:12:45;0.83;;;0.80;;
79261;SDS011;68699;48.220;16.358;2023-04-15T02:15:12;0.73;;;0.63;;
79261;SDS011;68699;48.220;16.358;2023-04-15T02:17:38;1.50;;;0.70;;
79261;SDS011;68699;48.220;16.358;2023-04-15T02:20:04;0.70;;;0.70;;
79261;SDS011;68699;48.220;16.358;2023-04-15T02:22:32;1.40;;;1.30;;
79261;SDS011;68699;48.220;16.358;2023-04-15T02:24:59;1.60;;;1.20;;
79261;SDS011;68699;48.220;16.358;2023-04-15T02:27:25;1.13;;;1.10;;
79261;SDS011;68699;48.220;16.358;2023-04-15T02:29:53;1.00;;;1.00;;
79261;SDS011;68699;48.220;16.358;2023-04-15T02:32:19;1.07;;;1.07;;
79261;SDS011;68699;48.220;16.358;2023-04-15T02:34:47;1.20;;;1.10;;
79261;SDS011;68699;48.220;16.358;2023-04-15T02:37:13;1.10;;;1.10;;
79261;SDS011;68699;48.220;16.358;2023-04-15T02:39:40;1.13;;;1.10;;
79261;SDS011;68699;48.220;16.358;2023-04-15T02:42:06;4.93;;;1.20;;
79261;SDS011;68699;48.220;16.358;2023-04-15T02:44:32;1.60;;;1.17;;
79261;SDS011;68699;48.220;16.358;2023-04-15T02:47:00;0.80;;;0.80;;
79261;SDS011;68699;48.220;16.358;2023-04-15T02:49:27;0.80;;;0.80;;
79261;SDS011;68699;48.220;16.358;2023-04-15T02:51:56;0.90;;;0.90;;
79261;SDS011;68699;48.220;16.358;2023-04-15T02:54:24;0.77;;;0.67;;
79261;SDS011;68699;48.220;16.358;2023-04-15T02:56:52;0.60;;;0.60;;
79261;SDS011;68699;48.220;16.358;2023-04-15T02:59:22;0.70;;;0.70;;
79261;SDS011;68699;48.220;16.358;2023-04-15T03:01:48;0.60;;;0.60;;
79261;SDS011;68699;48.220;16.358;2023-04-15T03:04:14;0.60;;;0.60;;
79261;SDS011;68699;48.220;16.358;2023-04-15T03:06:40;0.70;;;0.70;;
79261;SDS011;68699;48.220;16.358;2023-04-15T03:09:06;0.53;;;0.53;;
79261;SDS011;68699;48.220;16.358;2023-04-15T03:11:33;0.50;;;0.50;;
79261;SDS011;68699;48.220;16.358;2023-04-15T03:14:04;0.40;;;0.40;;
79261;SDS011;68699;48.220;16.358;2023-04-15T03:16:30;0.50;;;0.50;;
79261;SDS011;68699;48.220;16.358;2023-04-15T03:18:56;0.47;;;0.47;;
79261;SDS011;68699;48.220;16.358;2023-04-15T03:21:23;0.40;;;0.40;;
79261;SDS011;68699;48.220;16.358;2023-04-15T03:23:50;0.50;;;0.50;;
79261;SDS011;68699;48.220;16.358;2023-04-15T03:26:27;0.53;;;0.30;;
79261;SDS011;68699;48.220;16.358;2023-04-15T03:28:53;0.50;;;0.50;;
79261;SDS011;68699;48.220;16.358;2023-04-15T03:31:19;0.60;;;0.60;;
79261;SDS011;68699;48.220;16.358;2023-04-15T03:33:46;0.57;;;0.57;;
79261;SDS011;68699;48.220;16.358;2023-04-15T03:36:12;0.70;;;0.70;;
79261;SDS011;68699;48.220;16.358;2023-04-15T03:38:38;1.10;;;0.60;;
79261;SDS011;68699;48.220;16.358;2023-04-15T03:41:04;0.70;;;0.70;;
79261;SDS011;68699;48.220;16.358;2023-04-15T03:43:31;0.60;;;0.60;;
79261;SDS011;68699;48.220;16.358;2023-04-15T03:45:57;0.87;;;0.87;;
79261;SDS011;68699;48.220;16.358;2023-04-15T03:48:24;1.60;;;0.70;;
79261;SDS011;68699;48.220;16.358;2023-04-15T03:50:50;1.40;;;0.70;;
79261;SDS011;68699;48.220;16.358;2023-04-15T03:53:16;0.70;;;0.70;;
79261;SDS011;68699;48.220;16.358;2023-04-15T03:55:43;0.97;;;0.60;;
79261;SDS011;68699;48.220;16.358;2023-04-15T03:58:09;0.67;;;0.67;;
79261;SDS011;68699;48.220;16.358;2023-04-15T04:00:37;0.60;;;0.60;;
79261;SDS011;68699;48.220;16.358;2023-04-15T04:03:03;0.80;;;0.80;;
79261;SDS011;68699;48.220;16.358;2023-04-15T04:05:29;0.80;;;0.80;;
79261;SDS011;68699;48.220;16.358;2023-04-15T04:07:55;1.00;;;0.90;;
79261;SDS011;68699;48.220;16.358;2023-04-15T04:10:22;0.83;;;0.83;;
79261;SDS011;68699;48.220;16.358;2023-04-15T04:12:48;1.20;;;1.13;;
79261;SDS011;68699;48.220;16.358;2023-04-15T04:15:14;1.40;;;1.30;;
79261;SDS011;68699;48.220;16.358;2023-04-15T04:17:40;1.40;;;1.30;;
79261;SDS011;68699;48.220;16.358;2023-04-15T04:20:06;1.23;;;1.23;;
79261;SDS011;68699;48.220;16.358;2023-04-15T04:22:36;1.53;;;1.43;;
79261;SDS011;68699;48.220;16.358;2023-04-15T04:25:03;1.90;;;1.80;;
79261;SDS011;68699;48.220;16.358;2023-04-15T04:27:30;1.57;;;1.47;;
79261;SDS011;68699;48.220;16.358;2023-04-15T04:29:56;1.80;;;1.70;;
79261;SDS011;68699;48.220;16.358;2023-04-15T04:32:22;1.77;;;1.67;;
79261;SDS011;68699;48.220;16.358;2023-04-15T04:34:48;1.87;;;1.77;;
79261;SDS011;68699;48.220;16.358;2023-04-15T04:37:15;1.63;;;1.50;;
79261;SDS011;68699;48.220;16.358;2023-04-15T04:39:41;2.27;;;2.07;;
79261;SDS011;68699;48.220;16.358;2023-04-15T04:42:07;1.80;;;1.50;;
79261;SDS011;68699;48.220;16.358;2023-04-15T04:44:33;1.70;;;1.60;;
79261;SDS011;68699;48.220;16.358;2023-04-15T04:46:59;1.60;;;1.50;;
79261;SDS011;68699;48.220;16.358;2023-04-15T04:49:25;1.37;;;1.33;;
79261;SDS011;68699;48.220;16.358;2023-04-15T04:51:51;1.80;;;1.70;;
79261;SDS011;68699;48.220;16.358;2023-04-15T04:54:18;1.87;;;1.77;;
79261;SDS011;68699;48.220;16.358;2023-04-15T04:56:45;1.87;;;1.77;;
79261;SDS011;68699;48.220;16.358;2023-04-15T04:59:11;2.43;;;2.10;;
79261;SDS011;68699;48.220;16.358;2023-04-15T05:01:38;2.40;;;2.20;;
79261;SDS011;68699;48.220;16.358;2023-04-15T05:04:04;2.63;;;2.43;;
79261;SDS011;68699;48.220;16.358;2023-04-15T05:06:31;2.53;;;2.33;;
79261;SDS011;68699;48.220;16.358;2023-04-15T05:08:57;3.13;;;2.70;;
79261;SDS011;68699;48.220;16.358;2023-04-15T05:11:24;3.00;;;2.80;;
79261;SDS011;68699;48.220;16.358;2023-04-15T05:13:50;3.33;;;3.13;;
79261;SDS011;68699;48.220;16.358;2023-04-15T05:16:16;2.97;;;2.67;;
79261;SDS011;68699;48.220;16.358;2023-04-15T05:18:44;2.50;;;2.30;;
79261;SDS011;68699;48.220;16.358;2023-04-15T05:21:10;2.97;;;2.77;;
79261;SDS011;68699;48.220;16.358;2023-04-15T05:23:36;2.80;;;2.60;;
79261;SDS011;68699;48.220;16.358;2023-04-15T05:26:02;2.50;;;2.30;;
79261;SDS011;68699;48.220;16.358;2023-04-15T05:28:28;2.50;;;2.30;;
79261;SDS011;68699;48.220;16.358;2023-04-15T05:30:55;2.27;;;2.17;;
79261;SDS011;68699;48.220;16.358;2023-04-15T05:33:21;2.20;;;2.10;;
79261;SDS011;68699;48.220;16.358;2023-04-15T05:35:48;1.90;;;1.80;;
79261;SDS011;68699;48.220;16.358;2023-04-15T05:38:14;2.20;;;2.10;;
79261;SDS011;68699;48.220;16.358;2023-04-15T05:40:40;2.10;;;2.00;;
79261;SDS011;68699;48.220;16.358;2023-04-15T05:43:07;2.20;;;2.00;;
79261;SDS011;68699;48.220;16.358;2023-04-15T05:45:33;2.03;;;1.93;;
79261;SDS011;68699;48.220;16.358;2023-04-15T05:47:59;2.07;;;1.90;;
79261;SDS011;68699;48.220;16.358;2023-04-15T05:50:25;2.87;;;2.10;;
79261;SDS011;68699;48.220;16.358;2023-04-15T05:52:51;2.33;;;2.23;;
79261;SDS011;68699;48.220;16.358;2023-04-15T05:55:18;2.50;;;2.30;;
79261;SDS011;68699;48.220;16.358;2023-04-15T05:57:44;2.10;;;2.00;;
79261;SDS011;68699;48.220;16.358;2023-04-15T06:00:10;2.27;;;1.90;;
79261;SDS011;68699;48.220;16.358;2023-04-15T06:02:37;2.17;;;2.00;;
79261;SDS011;68699;48.220;16.358;2023-04-15T06:05:03;2.10;;;2.00;;
79261;SDS011;68699;48.220;16.358;2023-04-15T06:07:33;2.20;;;2.03;;
79261;SDS011;68699;48.220;16.358;2023-04-15T06:10:00;2.20;;;2.10;;
79261;SDS011;68699;48.220;16.358;2023-04-15T06:12:26;2.23;;;2.00;;
79261;SDS011;68699;48.220;16.358;2023-04-15T06:14:53;2.17;;;2.07;;
79261;SDS011;68699;48.220;16.358;2023-04-15T06:17:19;2.13;;;2.03;;
79261;SDS011;68699;48.220;16.358;2023-04-15T06:19:45;2.00;;;1.90;;
79261;SDS011;68699;48.220;16.358;2023-04-15T06:22:11;2.40;;;2.30;;
79261;SDS011;68699;48.220;16.358;2023-04-15T06:24:37;2.70;;;2.50;;
79261;SDS011;68699;48.220;16.358;2023-04-15T06:27:04;3.23;;;2.83;;
79261;SDS011;68699;48.220;16.358;2023-04-15T06:29:30;2.53;;;2.33;;
79261;SDS011;68699;48.220;16.358;2023-04-15T06:31:56;2.60;;;2.40;;
79261;SDS011;68699;48.220;16.358;2023-04-15T06:34:22;2.43;;;2.30;;
79261;SDS011;68699;48.220;16.358;2023-04-15T06:36:48;2.67;;;2.37;;
79261;SDS011;68699;48.220;16.358;2023-04-15T06:39:14;2.97;;;2.40;;
79261;SDS011;68699;48.220;16.358;2023-04-15T06:41:41;2.10;;;2.00;;
79261;SDS011;68699;48.220;16.358;2023-04-15T06:44:07;2.13;;;2.03;;
79261;SDS011;68699;48.220;16.358;2023-04-15T06:46:33;2.13;;;1.93;;
79261;SDS011;68699;48.220;16.358;2023-04-15T06:48:59;2.43;;;2.07;;
79261;SDS011;68699;48.220;16.358;2023-04-15T06:51:26;2.00;;;1.80;;
79261;SDS011;68699;48.220;16.358;2023-04-15T06:53:52;2.10;;;2.00;;
79261;SDS011;68699;48.220;16.358;2023-04-15T06:56:18;1.90;;;1.80;;
79261;SDS011;68699;48.220;16.358;2023-04-15T06:58:46;1.70;;;1.60;;
79261;SDS011;68699;48.220;16.358;2023-04-15T07:01:12;2.00;;;1.90;;
79261;SDS011;68699;48.220;16.358;2023-04-15T07:03:38;2.33;;;2.13;;
79261;SDS011;68699;48.220;16.358;2023-04-15T07:06:05;2.30;;;2.20;;
79261;SDS011;68699;48.220;16.358;2023-04-15T07:08:33;1.83;;;1.73;;
79261;SDS011;68699;48.220;16.358;2023-04-15T07:10:59;1.53;;;1.43;;
79261;SDS011;68699;48.220;16.358;2023-04-15T07:13:25;1.63;;;1.53;;
79261;SDS011;68699;48.220;16.358;2023-04-15T07:15:52;1.67;;;1.57;;
79261;SDS011;68699;48.220;16.358;2023-04-15T07:18:18;1.50;;;1.40;;
79261;SDS011;68699;48.220;16.358;2023-04-15T07:20:44;1.40;;;1.40;;
79261;SDS011;68699;48.220;16.358;2023-04-15T07:23:11;1.97;;;1.77;;
79261;SDS011;68699;48.220;16.358;2023-04-15T07:25:37;1.87;;;1.77;;
79261;SDS011;68699;48.220;16.358;2023-04-15T07:28:03;2.53;;;2.03;;
79261;SDS011;68699;48.220;16.358;2023-04-15T07:30:29;1.77;;;1.67;;
79261;SDS011;68699;48.220;16.358;2023-04-15T07:32:57;1.50;;;1.40;;
79261;SDS011;68699;48.220;16.358;2023-04-15T07:35:23;1.03;;;1.03;;
79261;SDS011;68699;48.220;16.358;2023-04-15T07:37:50;1.50;;;1.40;;
79261;SDS011;68699;48.220;16.358;2023-04-15T07:40:16;1.63;;;1.53;;
79261;SDS011;68699;48.220;16.358;2023-04-15T07:42:43;1.50;;;1.40;;
79261;SDS011;68699;48.220;16.358;2023-04-15T07:45:09;1.43;;;1.30;;
79261;SDS011;68699;48.220;16.358;2023-04-15T07:47:36;1.70;;;1.60;;
79261;SDS011;68699;48.220;16.358;2023-04-15T07:50:03;1.67;;;1.57;;
79261;SDS011;68699;48.220;16.358;2023-04-15T07:52:29;1.87;;;1.70;;
79261;SDS011;68699;48.220;16.358;2023-04-15T07:54:56;1.83;;;1.73;;
79261;SDS011;68699;48.220;16.358;2023-04-15T07:57:22;2.00;;;1.90;;
79261;SDS011;68699;48.220;16.358;2023-04-15T07:59:48;2.40;;;2.10;;
79261;SDS011;68699;48.220;16.358;2023-04-15T08:02:14;2.07;;;1.97;;
79261;SDS011;68699;48.220;16.358;2023-04-15T08:04:41;5.40;;;3.90;;
79261;SDS011;68699;48.220;16.358;2023-04-15T08:07:07;3.50;;;3.20;;
79261;SDS011;68699;48.220;16.358;2023-04-15T08:09:33;2.17;;;1.97;;
79261;SDS011;68699;48.220;16.358;2023-04-15T08:11:59;2.80;;;2.53;;
79261;SDS011;68699;48.220;16.358;2023-04-15T08:14:26;2.20;;;2.10;;
79261;SDS011;68699;48.220;16.358;2023-04-15T08:16:52;2.23;;;2.03;;
79261;SDS011;68699;48.220;16.358;2023-04-15T08:19:18;1.30;;;1.30;;
79261;SDS011;68699;48.220;16.358;2023-04-15T08:22:04;1.60;;;1.50;;
79261;SDS011;68699;48.220;16.358;2023-04-15T08:24:31;1.50;;;1.40;;
79261;SDS011;68699;48.220;16.358;2023-04-15T08:26:57;1.50;;;1.40;;
79261;SDS011;68699;48.220;16.358;2023-04-15T08:29:24;1.37;;;1.37;;
79261;SDS011;68699;48.220;16.358;2023-04-15T08:31:51;1.73;;;1.50;;
79261;SDS011;68699;48.220;16.358;2023-04-15T08:34:17;1.80;;;1.70;;
79261;SDS011;68699;48.220;16.358;2023-04-15T08:36:44;2.30;;;1.53;;
79261;SDS011;68699;48.220;16.358;2023-04-15T08:39:11;1.40;;;1.20;;
79261;SDS011;68699;48.220;16.358;2023-04-15T08:41:44;1.93;;;1.30;;
79261;SDS011;68699;48.220;16.358;2023-04-15T08:44:14;1.20;;;1.20;;
79261;SDS011;68699;48.220;16.358;2023-04-15T08:46:40;1.27;;;1.27;;
79261;SDS011;68699;48.220;16.358;2023-04-15T08:49:10;1.37;;;1.27;;
79261;SDS011;68699;48.220;16.358;2023-04-15T08:51:40;1.50;;;1.40;;
79261;SDS011;68699;48.220;16.358;2023-04-15T08:54:09;1.33;;;1.30;;
79261;SDS011;68699;48.220;16.358;2023-04-15T08:56:37;1.40;;;1.30;;
79261;SDS011;68699;48.220;16.358;2023-04-15T08:59:06;1.70;;;1.60;;
79261;SDS011;68699;48.220;16.358;2023-04-15T09:01:36;1.90;;;1.80;;
79261;SDS011;68699;48.220;16.358;2023-04-15T09:04:03;1.87;;;1.60;;
79261;SDS011;68699;48.220;16.358;2023-04-15T09:06:32;1.70;;;1.60;;
79261;SDS011;68699;48.220;16.358;2023-04-15T09:09:01;1.90;;;1.73;;
79261;SDS011;68699;48.220;16.358;2023-04-15T09:11:28;1.40;;;1.30;;
79261;SDS011;68699;48.220;16.358;2023-04-15T09:13:55;1.20;;;1.10;;
79261;SDS011;68699;48.220;16.358;2023-04-15T09:16:21;0.60;;;0.60;;
79261;SDS011;68699;48.220;16.358;2023-04-15T09:18:48;0.60;;;0.60;;
79261;SDS011;68699;48.220;16.358;2023-04-15T09:21:15;0.60;;;0.60;;
79261;SDS011;68699;48.220;16.358;2023-04-15T09:26:34;0.83;;;0.83;;
79261;SDS011;68699;48.220;16.358;2023-04-15T09:29:08;0.60;;;0.60;;
79261;SDS011;68699;48.220;16.358;2023-04-15T09:31:37;0.60;;;0.60;;
79261;SDS011;68699;48.220;16.358;2023-04-15T09:34:06;0.67;;;0.67;;
79261;SDS011;68699;48.220;16.358;2023-04-15T09:39:14;0.90;;;0.80;;
79261;SDS011;68699;48.220;16.358;2023-04-15T09:41:40;0.70;;;0.70;;
79261;SDS011;68699;48.220;16.358;2023-04-15T09:44:20;0.80;;;0.80;;
79261;SDS011;68699;48.220;16.358;2023-04-15T09:46:49;0.87;;;0.87;;
79261;SDS011;68699;48.220;16.358;2023-04-15T09:49:16;0.70;;;0.70;;
79261;SDS011;68699;48.220;16.358;2023-04-15T09:51:42;0.70;;;0.70;;
79261;SDS011;68699;48.220;16.358;2023-04-15T09:54:08;0.50;;;0.50;;
79261;SDS011;68699;48.220;16.358;2023-04-15T09:56:35;0.50;;;0.50;;
79261;SDS011;68699;48.220;16.358;2023-04-15T09:59:04;0.63;;;0.63;;
79261;SDS011;68699;48.220;16.358;2023-04-15T10:01:30;0.67;;;0.67;;
79261;SDS011;68699;48.220;16.358;2023-04-15T10:03:57;0.60;;;0.60;;
79261;SDS011;68699;48.220;16.358;2023-04-15T10:06:26;0.80;;;0.80;;
79261;SDS011;68699;48.220;16.358;2023-04-15T10:08:53;1.10;;;0.63;;
79261;SDS011;68699;48.220;16.358;2023-04-15T10:11:19;0.60;;;0.60;;
79261;SDS011;68699;48.220;16.358;2023-04-15T10:13:48;1.13;;;0.80;;
79261;SDS011;68699;48.220;16.358;2023-04-15T10:16:15;0.80;;;0.80;;
79261;SDS011;68699;48.220;16.358;2023-04-15T10:18:42;0.70;;;0.70;;
79261;SDS011;68699;48.220;16.358;2023-04-15T10:21:09;0.93;;;0.93;;
79261;SDS011;68699;48.220;16.358;2023-04-15T10:23:38;0.57;;;0.57;;
79261;SDS011;68699;48.220;16.358;2023-04-15T10:26:04;0.53;;;0.53;;
79261;SDS011;68699;48.220;16.358;2023-04-15T10:28:30;0.60;;;0.60;;
79261;SDS011;68699;48.220;16.358;2023-04-15T10:30:57;1.03;;;0.80;;
79261;SDS011;68699;48.220;16.358;2023-04-15T10:33:24;1.53;;;0.80;;
79261;SDS011;68699;48.220;16.358;2023-04-15T10:35:51;0.60;;;0.60;;
79261;SDS011;68699;48.220;16.358;2023-04-15T10:48:50;0.73;;;0.40;;
79261;SDS011;68699;48.220;16.358;2023-04-15T10:51:25;0.60;;;0.60;;
79261;SDS011;68699;48.220;16.358;2023-04-15T10:53:55;0.53;;;0.53;;
79261;SDS011;68699;48.220;16.358;2023-04-15T10:56:21;0.40;;;0.40;;
79261;SDS011;68699;48.220;16.358;2023-04-15T10:58:48;0.80;;;0.80;;
79261;SDS011;68699;48.220;16.358;2023-04-15T11:01:14;0.73;;;0.73;;
79261;SDS011;68699;48.220;16.358;2023-04-15T11:03:41;0.70;;;0.70;;
79261;SDS011;68699;48.220;16.358;2023-04-15T11:06:08;0.53;;;0.53;;
79261;SDS011;68699;48.220;16.358;2023-04-15T11:11:19;1.13;;;1.00;;
79261;SDS011;68699;48.220;16.358;2023-04-15T11:13:46;0.90;;;0.90;;
79261;SDS011;68699;48.220;16.358;2023-04-15T11:16:13;0.90;;;0.90;;
79261;SDS011;68699;48.220;16.358;2023-04-15T11:18:39;0.90;;;0.90;;
79261;SDS011;68699;48.220;16.358;2023-04-15T11:21:06;1.00;;;0.90;;
79261;SDS011;68699;48.220;16.358;2023-04-15T11:23:37;1.13;;;0.97;;
79261;SDS011;68699;48.220;16.358;2023-04-15T11:26:05;1.13;;;0.80;;
79261;SDS011;68699;48.220;16.358;2023-04-15T11:28:33;0.87;;;0.87;;
79261;SDS011;68699;48.220;16.358;2023-04-15T11:31:07;1.30;;;1.20;;
79261;SDS011;68699;48.220;16.358;2023-04-15T11:33:34;1.43;;;1.20;;
79261;SDS011;68699;48.220;16.358;2023-04-15T11:36:01;1.60;;;1.50;;
79261;SDS011;68699;48.220;16.358;2023-04-15T11:38:28;0.67;;;0.67;;
79261;SDS011;68699;48.220;16.358;2023-04-15T11:40:55;1.10;;;1.00;;
79261;SDS011;68699;48.220;16.358;2023-04-15T11:43:22;1.30;;;1.00;;
79261;SDS011;68699;48.220;16.358;2023-04-15T11:45:53;0.70;;;0.70;;
79261;SDS011;68699;48.220;16.358;2023-04-15T11:48:40;1.07;;;1.00;;
79261;SDS011;68699;48.220;16.358;2023-04-15T11:51:07;1.13;;;1.10;;
79261;SDS011;68699;48.220;16.358;2023-04-15T11:56:06;1.40;;;0.90;;
79261;SDS011;68699;48.220;16.358;2023-04-15T11:58:33;0.90;;;0.90;;
79261;SDS011;68699;48.220;16.358;2023-04-15T12:01:03;0.70;;;0.70;;
79261;SDS011;68699;48.220;16.358;2023-04-15T12:03:32;0.60;;;0.60;;
79261;SDS011;68699;48.220;16.358;2023-04-15T12:06:17;0.73;;;0.73;;
79261;SDS011;68699;48.220;16.358;2023-04-15T12:08:48;0.50;;;0.50;;
79261;SDS011;68699;48.220;16.358;2023-04-15T12:11:15;0.50;;;0.50;;
79261;SDS011;68699;48.220;16.358;2023-04-15T12:13:43;0.60;;;0.60;;
79261;SDS011;68699;48.220;16.358;2023-04-15T12:16:09;1.13;;;0.80;;
79261;SDS011;68699;48.220;16.358;2023-04-15T12:18:38;0.60;;;0.60;;
79261;SDS011;68699;48.220;16.358;2023-04-15T12:21:12;0.50;;;0.50;;
79261;SDS011;68699;48.220;16.358;2023-04-15T12:23:46;0.33;;;0.33;;
79261;SDS011;68699;48.220;16.358;2023-04-15T12:26:14;0.60;;;0.60;;
79261;SDS011;68699;48.220;16.358;2023-04-15T12:28:40;1.03;;;0.60;;
79261;SDS011;68699;48.220;16.358;2023-04-15T12:31:11;0.80;;;0.80;;
79261;SDS011;68699;48.220;16.358;2023-04-15T12:33:39;0.60;;;0.60;;
79261;SDS011;68699;48.220;16.358;2023-04-15T12:36:05;0.40;;;0.40;;
79261;SDS011;68699;48.220;16.358;2023-04-15T12:38:32;0.50;;;0.50;;
79261;SDS011;68699;48.220;16.358;2023-04-15T12:40:58;0.20;;;0.20;;
79261;SDS011;68699;48.220;16.358;2023-04-15T12:43:27;0.50;;;0.50;;
79261;SDS011;68699;48.220;16.358;2023-04-15T12:45:53;0.50;;;0.50;;
79261;SDS011;68699;48.220;16.358;2023-04-15T12:48:19;0.60;;;0.60;;
79261;SDS011;68699;48.220;16.358;2023-04-15T12:50:45;0.57;;;0.57;;
79261;SDS011;68699;48.220;16.358;2023-04-15T12:53:12;0.53;;;0.53;;
79261;SDS011;68699;48.220;16.358;2023-04-15T12:55:38;0.40;;;0.40;;
79261;SDS011;68699;48.220;16.358;2023-04-15T12:58:04;0.30;;;0.30;;
79261;SDS011;68699;48.220;16.358;2023-04-15T13:00:33;0.53;;;0.53;;
79261;SDS011;68699;48.220;16.358;2023-04-15T13:02:59;0.70;;;0.70;;
79261;SDS011;68699;48.220;16.358;2023-04-15T13:05:26;0.60;;;0.60;;
79261;SDS011;68699;48.220;16.358;2023-04-15T13:07:52;0.40;;;0.40;;
79261;SDS011;68699;48.220;16.358;2023-04-15T13:10:19;0.40;;;0.40;;
79261;SDS011;68699;48.220;16.358;2023-04-15T13:12:47;0.40;;;0.40;;
79261;SDS011;68699;48.220;16.358;2023-04-15T13:15:14;0.77;;;0.40;;
79261;SDS011;68699;48.220;16.358;2023-04-15T13:17:43;0.60;;;0.60;;
79261;SDS011;68699;48.220;16.358;2023-04-15T13:20:09;0.47;;;0.47;;
79261;SDS011;68699;48.220;16.358;2023-04-15T13:22:35;0.60;;;0.60;;
79261;SDS011;68699;48.220;16.358;2023-04-15T13:25:02;0.70;;;0.70;;
79261;SDS011;68699;48.220;16.358;2023-04-15T13:27:28;0.67;;;0.50;;
79261;SDS011;68699;48.220;16.358;2023-04-15T13:29:55;0.40;;;0.40;;
79261;SDS011;68699;48.220;16.358;2023-04-15T13:32:24;0.47;;;0.47;;
79261;SDS011;68699;48.220;16.358;2023-04-15T13:34:51;0.70;;;0.70;;
79261;SDS011;68699;48.220;16.358;2023-04-15T13:37:18;0.50;;;0.50;;
79261;SDS011;68699;48.220;16.358;2023-04-15T13:39:45;0.30;;;0.30;;
79261;SDS011;68699;48.220;16.358;2023-04-15T13:42:11;0.60;;;0.57;;
79261;SDS011;68699;48.220;16.358;2023-04-15T13:44:37;0.40;;;0.40;;
79261;SDS011;68699;48.220;16.358;2023-04-15T13:47:04;0.40;;;0.40;;
79261;SDS011;68699;48.220;16.358;2023-04-15T13:49:30;0.40;;;0.40;;
79261;SDS011;68699;48.220;16.358;2023-04-15T13:51:56;0.50;;;0.50;;
79261;SDS011;68699;48.220;16.358;2023-04-15T13:54:23;0.43;;;0.43;;
79261;SDS011;68699;48.220;16.358;2023-04-15T13:56:49;0.30;;;0.30;;
79261;SDS011;68699;48.220;16.358;2023-04-15T13:59:15;0.40;;;0.40;;
79261;SDS011;68699;48.220;16.358;2023-04-15T14:01:41;0.40;;;0.40;;
79261;SDS011;68699;48.220;16.358;2023-04-15T14:04:08;0.40;;;0.40;;
79261;SDS011;68699;48.220;16.358;2023-04-15T14:06:35;0.47;;;0.47;;
79261;SDS011;68699;48.220;16.358;2023-04-15T14:09:01;0.60;;;0.60;;
79261;SDS011;68699;48.220;16.358;2023-04-15T14:11:27;0.60;;;0.60;;
79261;SDS011;68699;48.220;16.358;2023-04-15T14:13:54;1.03;;;0.43;;
79261;SDS011;68699;48.220;16.358;2023-04-15T14:16:20;0.60;;;0.60;;
79261;SDS011;68699;48.220;16.358;2023-04-15T14:18:46;0.50;;;0.50;;
79261;SDS011;68699;48.220;16.358;2023-04-15T14:21:12;0.93;;;0.93;;
79261;SDS011;68699;48.220;16.358;2023-04-15T14:23:38;1.00;;;0.70;;
79261;SDS011;68699;48.220;16.358;2023-04-15T14:26:04;0.73;;;0.73;;
79261;SDS011;68699;48.220;16.358;2023-04-15T14:28:31;0.70;;;0.70;;
79261;SDS011;68699;48.220;16.358;2023-04-15T14:30:57;0.70;;;0.70;;
79261;SDS011;68699;48.220;16.358;2023-04-15T14:33:23;0.57;;;0.57;;
79261;SDS011;68699;48.220;16.358;2023-04-15T14:35:49;0.63;;;0.63;;
79261;SDS011;68699;48.220;16.358;2023-04-15T14:38:16;0.50;;;0.50;;
79261;SDS011;68699;48.220;16.358;2023-04-15T14:40:42;0.93;;;0.70;;
79261;SDS011;68699;48.220;16.358;2023-04-15T14:43:09;0.40;;;0.40;;
79261;SDS011;68699;48.220;16.358;2023-04-15T14:45:36;0.73;;;0.60;;
79261;SDS011;68699;48.220;16.358;2023-04-15T14:48:03;0.70;;;0.70;;
79261;SDS011;68699;48.220;16.358;2023-04-15T14:50:30;0.60;;;0.60;;
79261;SDS011;68699;48.220;16.358;2023-04-15T14:52:57;0.60;;;0.60;;